PWSweather.com
Personal Weather Stations
Station Observations
IBAVARIA50
Munich, PlieningDE 85652

MunichPlieningDE 85652

Lat: 48.19916153, Lon: 11.79794312

Elevation: 504

Station Type: Davis Vantage Pro2

http://wetterstation-pliening.info

High Low Average
Temperature 55.6°F13.1°C 45.2°F7.3°C 50.1°F10.1°C
Dew Point 48.3°F9.1°C 36.7°F2.6°C 41.5°F5.3°C
Winds Calm Calm Calm Calm Calm SSWCalm SSW
Wind Gusts -- -- --
Humidity 77% 68% 73%
Pressure 29.93 in1013.5 mb 29.82 in1009.8 mb -
Precipitation 0.14 in3.6 mm - -
Hour Temp Dew Point Humidity Winds Wind Gusts Pressure Precip Precip Rate Daily Precip Total
12:00 AM 49.5°F9.7°C 42.2°F5.7°C 76% Calm Calm -- 29.85 in1010.8 mb 0.00 in0.0 mm 0.00 in0.0 mm 0.00 in0.0 mm
12:05 AM 49.5°F9.7°C 42.2°F5.7°C 76% Calm Calm -- 29.85 in1010.8 mb 0.00 in0.0 mm 0.00 in0.0 mm 0.00 in0.0 mm
12:10 AM 49.5°F9.7°C 42.2°F5.7°C 76% Calm Calm -- 29.85 in1010.8 mb 0.00 in0.0 mm 0.00 in0.0 mm 0.00 in0.0 mm
12:15 AM 49.4°F9.7°C 41.8°F5.4°C 75% Calm Calm -- 29.85 in1010.8 mb 0.00 in0.0 mm 0.00 in0.0 mm 0.00 in0.0 mm
12:20 AM 49.4°F9.7°C 41.8°F5.4°C 75% Calm Calm -- 29.85 in1010.8 mb 0.00 in0.0 mm 0.00 in0.0 mm 0.00 in0.0 mm
12:25 AM 49.4°F9.7°C 41.8°F5.4°C 75% Calm Calm -- 29.86 in1011.2 mb 0.00 in0.0 mm 0.00 in0.0 mm 0.00 in0.0 mm
12:30 AM 49.3°F9.6°C 41.7°F5.4°C 75% Calm Calm -- 29.86 in1011.2 mb 0.00 in0.0 mm 0.00 in0.0 mm 0.00 in0.0 mm
12:35 AM 49.3°F9.6°C 41.7°F5.4°C 75% Calm Calm -- 29.85 in1010.8 mb 0.00 in0.0 mm 0.00 in0.0 mm 0.00 in0.0 mm
12:40 AM 49.3°F9.6°C 41.7°F5.4°C 75% Calm Calm -- 29.85 in1010.8 mb 0.00 in0.0 mm 0.00 in0.0 mm 0.00 in0.0 mm
12:45 AM 49.3°F9.6°C 41.7°F5.4°C 75% Calm Calm -- 29.85 in1010.8 mb 0.00 in0.0 mm 0.00 in0.0 mm 0.00 in0.0 mm
12:50 AM 49.3°F9.6°C 41.7°F5.4°C 75% Calm Calm -- 29.85 in1010.8 mb 0.00 in0.0 mm 0.00 in0.0 mm 0.00 in0.0 mm
12:55 AM 49.3°F9.6°C 41.7°F5.4°C 75% Calm Calm -- 29.85 in1010.8 mb 0.00 in0.0 mm 0.00 in0.0 mm 0.00 in0.0 mm
01:00 AM 49.4°F9.7°C 41.8°F5.4°C 75% Calm Calm -- 29.85 in1010.8 mb 0.00 in0.0 mm 0.00 in0.0 mm 0.00 in0.0 mm
01:05 AM 49.5°F9.7°C 41.9°F5.5°C 75% Calm Calm -- 29.85 in1010.8 mb 0.00 in0.0 mm 0.00 in0.0 mm 0.00 in0.0 mm
01:10 AM 49.5°F9.7°C 41.9°F5.5°C 75% Calm Calm -- 29.85 in1010.8 mb 0.00 in0.0 mm 0.00 in0.0 mm 0.00 in0.0 mm
01:15 AM 49.5°F9.7°C 41.9°F5.5°C 75% Calm Calm -- 29.85 in1010.8 mb 0.00 in0.0 mm 0.00 in0.0 mm 0.00 in0.0 mm
01:20 AM 49.5°F9.7°C 41.9°F5.5°C 75% Calm Calm -- 29.85 in1010.8 mb 0.00 in0.0 mm 0.00 in0.0 mm 0.00 in0.0 mm
01:25 AM 49.5°F9.7°C 41.9°F5.5°C 75% Calm Calm -- 29.85 in1010.8 mb 0.00 in0.0 mm 0.00 in0.0 mm 0.00 in0.0 mm
01:30 AM 49.5°F9.7°C 41.5°F5.3°C 74% Calm Calm -- 29.84 in1010.5 mb 0.00 in0.0 mm 0.00 in0.0 mm 0.00 in0.0 mm
01:35 AM 49.6°F9.8°C 41.6°F5.3°C 74% Calm Calm -- 29.85 in1010.8 mb 0.00 in0.0 mm 0.00 in0.0 mm 0.00 in0.0 mm
01:40 AM 49.6°F9.8°C 41.6°F5.3°C 74% Calm Calm -- 29.85 in1010.8 mb 0.00 in0.0 mm 0.00 in0.0 mm 0.00 in0.0 mm
01:45 AM 49.7°F9.8°C 41.7°F5.4°C 74% Calm Calm -- 29.85 in1010.8 mb 0.00 in0.0 mm 0.00 in0.0 mm 0.00 in0.0 mm
01:50 AM 49.7°F9.8°C 41.7°F5.4°C 74% Calm Calm -- 29.85 in1010.8 mb 0.00 in0.0 mm 0.00 in0.0 mm 0.00 in0.0 mm
01:55 AM 49.7°F9.8°C 41.7°F5.4°C 74% Calm Calm -- 29.85 in1010.8 mb 0.00 in0.0 mm 0.00 in0.0 mm 0.00 in0.0 mm
02:00 AM 49.8°F9.9°C 41.8°F5.4°C 74% Calm Calm -- 29.85 in1010.8 mb 0.00 in0.0 mm 0.00 in0.0 mm 0.00 in0.0 mm
02:05 AM 49.7°F9.8°C 41.7°F5.4°C 74% Calm Calm -- 29.85 in1010.8 mb 0.00 in0.0 mm 0.00 in0.0 mm 0.00 in0.0 mm
02:10 AM 49.8°F9.9°C 41.8°F5.4°C 74% Calm Calm -- 29.85 in1010.8 mb 0.00 in0.0 mm 0.00 in0.0 mm 0.00 in0.0 mm
02:15 AM 49.9°F9.9°C 41.5°F5.3°C 73% Calm Calm -- 29.85 in1010.8 mb 0.01 in0.3 mm 0.12 in3.0 mm 0.01 in0.3 mm
02:20 AM 50.0°F10.0°C 41.6°F5.3°C 73% Calm Calm -- 29.85 in1010.8 mb 0.01 in0.3 mm 0.00 in0.0 mm 0.01 in0.3 mm
02:25 AM 50.0°F10.0°C 41.6°F5.3°C 73% Calm Calm -- 29.85 in1010.8 mb 0.01 in0.3 mm 0.00 in0.0 mm 0.01 in0.3 mm
02:30 AM 50.0°F10.0°C 42.7°F5.9°C 76% Calm Calm -- 29.85 in1010.8 mb 0.01 in0.3 mm 0.00 in0.0 mm 0.01 in0.3 mm
02:35 AM 50.0°F10.0°C 41.6°F5.3°C 73% Calm Calm -- 29.84 in1010.5 mb 0.01 in0.3 mm 0.00 in0.0 mm 0.01 in0.3 mm
02:40 AM 50.0°F10.0°C 41.6°F5.3°C 73% Calm Calm -- 29.84 in1010.5 mb 0.01 in0.3 mm 0.00 in0.0 mm 0.01 in0.3 mm
02:45 AM 50.0°F10.0°C 41.6°F5.3°C 73% Calm Calm -- 29.83 in1010.2 mb 0.01 in0.3 mm 0.00 in0.0 mm 0.01 in0.3 mm
02:50 AM 50.0°F10.0°C 41.6°F5.3°C 73% Calm Calm -- 29.83 in1010.2 mb 0.01 in0.3 mm 0.00 in0.0 mm 0.01 in0.3 mm
02:55 AM 50.0°F10.0°C 41.6°F5.3°C 73% Calm Calm -- 29.83 in1010.2 mb 0.01 in0.3 mm 0.00 in0.0 mm 0.01 in0.3 mm
03:00 AM 50.0°F10.0°C 41.6°F5.3°C 73% Calm Calm -- 29.83 in1010.2 mb 0.01 in0.3 mm 0.00 in0.0 mm 0.01 in0.3 mm
03:05 AM 49.9°F9.9°C 41.5°F5.3°C 73% Calm Calm -- 29.83 in1010.2 mb 0.01 in0.3 mm 0.00 in0.0 mm 0.01 in0.3 mm
03:10 AM 49.8°F9.9°C 41.4°F5.2°C 73% Calm Calm -- 29.82 in1009.8 mb 0.01 in0.3 mm 0.00 in0.0 mm 0.01 in0.3 mm
03:15 AM 49.7°F9.8°C 41.4°F5.2°C 73% Calm Calm -- 29.82 in1009.8 mb 0.00 in0.0 mm 0.00 in0.0 mm 0.01 in0.3 mm
03:20 AM 49.7°F9.8°C 41.4°F5.2°C 73% Calm Calm -- 29.82 in1009.8 mb 0.00 in0.0 mm 0.00 in0.0 mm 0.01 in0.3 mm
03:25 AM 49.6°F9.8°C 40.9°F4.9°C 72% Calm Calm -- 29.82 in1009.8 mb 0.00 in0.0 mm 0.00 in0.0 mm 0.01 in0.3 mm
03:30 AM 49.7°F9.8°C 41.0°F5.0°C 72% Calm Calm -- 29.82 in1009.8 mb 0.00 in0.0 mm 0.00 in0.0 mm 0.01 in0.3 mm
03:35 AM 49.7°F9.8°C 41.0°F5.0°C 72% Calm Calm -- 29.82 in1009.8 mb 0.00 in0.0 mm 0.00 in0.0 mm 0.01 in0.3 mm
03:40 AM 49.7°F9.8°C 41.0°F5.0°C 72% Calm Calm -- 29.82 in1009.8 mb 0.00 in0.0 mm 0.00 in0.0 mm 0.01 in0.3 mm
03:45 AM 49.8°F9.9°C 41.1°F5.1°C 72% Calm Calm -- 29.83 in1010.2 mb 0.00 in0.0 mm 0.00 in0.0 mm 0.01 in0.3 mm
03:50 AM 49.8°F9.9°C 41.1°F5.1°C 72% Calm Calm -- 29.83 in1010.2 mb 0.00 in0.0 mm 0.00 in0.0 mm 0.01 in0.3 mm
03:55 AM 49.7°F9.8°C 41.0°F5.0°C 72% Calm Calm -- 29.83 in1010.2 mb 0.00 in0.0 mm 0.00 in0.0 mm 0.01 in0.3 mm
04:00 AM 49.7°F9.8°C 41.0°F5.0°C 72% Calm Calm -- 29.83 in1010.2 mb 0.00 in0.0 mm 0.00 in0.0 mm 0.01 in0.3 mm
04:05 AM 49.7°F9.8°C 41.0°F5.0°C 72% Calm Calm -- 29.84 in1010.5 mb 0.01 in0.3 mm 0.12 in3.0 mm 0.02 in0.5 mm
04:10 AM 49.6°F9.8°C 40.9°F4.9°C 72% Calm Calm -- 29.84 in1010.5 mb 0.01 in0.3 mm 0.00 in0.0 mm 0.02 in0.5 mm
04:15 AM 49.6°F9.8°C 40.9°F4.9°C 72% Calm Calm -- 29.83 in1010.2 mb 0.01 in0.3 mm 0.00 in0.0 mm 0.02 in0.5 mm
04:20 AM 49.6°F9.8°C 40.9°F4.9°C 72% Calm Calm -- 29.84 in1010.5 mb 0.01 in0.3 mm 0.00 in0.0 mm 0.02 in0.5 mm
04:25 AM 49.6°F9.8°C 40.9°F4.9°C 72% Calm Calm -- 29.83 in1010.2 mb 0.01 in0.3 mm 0.00 in0.0 mm 0.02 in0.5 mm
04:30 AM 49.5°F9.7°C 40.8°F4.9°C 72% Calm Calm -- 29.83 in1010.2 mb 0.01 in0.3 mm 0.00 in0.0 mm 0.02 in0.5 mm
04:35 AM 49.5°F9.7°C 40.8°F4.9°C 72% Calm Calm -- 29.83 in1010.2 mb 0.01 in0.3 mm 0.00 in0.0 mm 0.02 in0.5 mm
04:40 AM 49.5°F9.7°C 40.8°F4.9°C 72% Calm Calm -- 29.84 in1010.5 mb 0.01 in0.3 mm 0.00 in0.0 mm 0.02 in0.5 mm
04:45 AM 49.5°F9.7°C 40.4°F4.7°C 71% Calm Calm -- 29.83 in1010.2 mb 0.02 in0.5 mm 0.12 in3.0 mm 0.02 in0.5 mm
04:50 AM 49.5°F9.7°C 40.4°F4.7°C 71% Calm Calm -- 29.83 in1010.2 mb 0.02 in0.5 mm 0.00 in0.0 mm 0.02 in0.5 mm
04:55 AM 49.5°F9.7°C 40.4°F4.7°C 71% Calm Calm -- 29.83 in1010.2 mb 0.02 in0.5 mm 0.00 in0.0 mm 0.02 in0.5 mm
05:00 AM 49.5°F9.7°C 40.4°F4.7°C 71% Calm Calm -- 29.83 in1010.2 mb 0.02 in0.5 mm 0.00 in0.0 mm 0.02 in0.5 mm
05:05 AM 49.5°F9.7°C 40.4°F4.7°C 71% Calm Calm -- 29.83 in1010.2 mb 0.01 in0.3 mm 0.00 in0.0 mm 0.02 in0.5 mm
05:10 AM 49.6°F9.8°C 40.5°F4.7°C 71% Calm Calm -- 29.82 in1009.8 mb 0.01 in0.3 mm 0.00 in0.0 mm 0.02 in0.5 mm
05:15 AM 49.6°F9.8°C 40.5°F4.7°C 71% Calm Calm -- 29.83 in1010.2 mb 0.01 in0.3 mm 0.00 in0.0 mm 0.02 in0.5 mm
05:20 AM 49.6°F9.8°C 40.5°F4.7°C 71% Calm Calm -- 29.83 in1010.2 mb 0.01 in0.3 mm 0.00 in0.0 mm 0.02 in0.5 mm
05:25 AM 49.6°F9.8°C 40.5°F4.7°C 71% Calm Calm -- 29.82 in1009.8 mb 0.01 in0.3 mm 0.00 in0.0 mm 0.02 in0.5 mm
05:30 AM 49.6°F9.8°C 40.5°F4.7°C 71% Calm Calm -- 29.82 in1009.8 mb 0.01 in0.3 mm 0.00 in0.0 mm 0.02 in0.5 mm
05:35 AM 49.6°F9.8°C 40.5°F4.7°C 71% Calm Calm -- 29.82 in1009.8 mb 0.01 in0.3 mm 0.00 in0.0 mm 0.02 in0.5 mm
05:40 AM 49.6°F9.8°C 40.5°F4.7°C 71% Calm Calm -- 29.83 in1010.2 mb 0.01 in0.3 mm 0.00 in0.0 mm 0.02 in0.5 mm
05:45 AM 49.5°F9.7°C 40.4°F4.7°C 71% Calm Calm -- 29.83 in1010.2 mb 0.00 in0.0 mm 0.00 in0.0 mm 0.02 in0.5 mm
05:50 AM 49.5°F9.7°C 40.4°F4.7°C 71% Calm Calm -- 29.83 in1010.2 mb 0.00 in0.0 mm 0.00 in0.0 mm 0.02 in0.5 mm
05:55 AM 49.4°F9.7°C 40.3°F4.6°C 71% Calm Calm -- 29.84 in1010.5 mb 0.00 in0.0 mm 0.00 in0.0 mm 0.02 in0.5 mm
06:00 AM 49.3°F9.6°C 40.2°F4.6°C 71% Calm Calm -- 29.84 in1010.5 mb 0.00 in0.0 mm 0.00 in0.0 mm 0.02 in0.5 mm
06:05 AM 49.3°F9.6°C 40.2°F4.6°C 71% Calm Calm -- 29.84 in1010.5 mb 0.00 in0.0 mm 0.00 in0.0 mm 0.02 in0.5 mm
06:10 AM 49.2°F9.6°C 40.2°F4.6°C 71% Calm Calm -- 29.84 in1010.5 mb 0.00 in0.0 mm 0.00 in0.0 mm 0.02 in0.5 mm
06:15 AM 49.2°F9.6°C 40.2°F4.6°C 71% Calm Calm -- 29.84 in1010.5 mb 0.00 in0.0 mm 0.00 in0.0 mm 0.02 in0.5 mm
06:20 AM 49.2°F9.6°C 40.2°F4.6°C 71% Calm Calm -- 29.84 in1010.5 mb 0.00 in0.0 mm 0.00 in0.0 mm 0.02 in0.5 mm
06:25 AM 49.2°F9.6°C 39.8°F4.3°C 70% Calm Calm -- 29.84 in1010.5 mb 0.01 in0.3 mm 0.12 in3.0 mm 0.03 in0.8 mm
06:30 AM 49.2°F9.6°C 39.8°F4.3°C 70% Calm Calm -- 29.84 in1010.5 mb 0.01 in0.3 mm 0.00 in0.0 mm 0.03 in0.8 mm
06:35 AM 49.2°F9.6°C 39.8°F4.3°C 70% Calm Calm -- 29.84 in1010.5 mb 0.01 in0.3 mm 0.00 in0.0 mm 0.03 in0.8 mm
06:40 AM 49.2°F9.6°C 39.8°F4.3°C 70% Calm Calm -- 29.84 in1010.5 mb 0.01 in0.3 mm 0.00 in0.0 mm 0.03 in0.8 mm
06:45 AM 49.2°F9.6°C 39.8°F4.3°C 70% Calm Calm -- 29.84 in1010.5 mb 0.01 in0.3 mm 0.00 in0.0 mm 0.03 in0.8 mm
06:50 AM 49.2°F9.6°C 39.8°F4.3°C 70% Calm Calm -- 29.84 in1010.5 mb 0.01 in0.3 mm 0.00 in0.0 mm 0.03 in0.8 mm
06:55 AM 49.3°F9.6°C 39.9°F4.4°C 70% Calm Calm -- 29.84 in1010.5 mb 0.01 in0.3 mm 0.00 in0.0 mm 0.03 in0.8 mm
07:00 AM 49.3°F9.6°C 39.9°F4.4°C 70% Calm Calm -- 29.84 in1010.5 mb 0.01 in0.3 mm 0.00 in0.0 mm 0.03 in0.8 mm
07:05 AM 49.4°F9.7°C 40.0°F4.4°C 70% Calm Calm -- 29.84 in1010.5 mb 0.01 in0.3 mm 0.00 in0.0 mm 0.03 in0.8 mm
07:10 AM 49.4°F9.7°C 40.0°F4.4°C 70% Calm Calm -- 29.84 in1010.5 mb 0.01 in0.3 mm 0.00 in0.0 mm 0.03 in0.8 mm
07:15 AM 49.5°F9.7°C 40.1°F4.5°C 70% Calm Calm -- 29.84 in1010.5 mb 0.01 in0.3 mm 0.00 in0.0 mm 0.03 in0.8 mm
07:20 AM 49.5°F9.7°C 40.1°F4.5°C 70% Calm Calm -- 29.84 in1010.5 mb 0.02 in0.5 mm 0.12 in3.0 mm 0.04 in1.0 mm
07:25 AM 49.6°F9.8°C 40.2°F4.6°C 70% Calm Calm -- 29.84 in1010.5 mb 0.01 in0.3 mm 0.00 in0.0 mm 0.04 in1.0 mm
07:30 AM 49.6°F9.8°C 40.2°F4.6°C 70% Calm Calm -- 29.85 in1010.8 mb 0.01 in0.3 mm 0.00 in0.0 mm 0.04 in1.0 mm
07:35 AM 49.6°F9.8°C 40.2°F4.6°C 70% Calm Calm -- 29.85 in1010.8 mb 0.01 in0.3 mm 0.00 in0.0 mm 0.04 in1.0 mm
07:40 AM 49.7°F9.8°C 40.3°F4.6°C 70% Calm Calm -- 29.85 in1010.8 mb 0.01 in0.3 mm 0.00 in0.0 mm 0.04 in1.0 mm
07:45 AM 49.7°F9.8°C 40.3°F4.6°C 70% Calm Calm -- 29.85 in1010.8 mb 0.01 in0.3 mm 0.00 in0.0 mm 0.04 in1.0 mm
07:50 AM 49.7°F9.8°C 40.3°F4.6°C 70% Calm Calm -- 29.85 in1010.8 mb 0.01 in0.3 mm 0.00 in0.0 mm 0.04 in1.0 mm
07:55 AM 49.6°F9.8°C 40.2°F4.6°C 70% Calm Calm -- 29.85 in1010.8 mb 0.02 in0.5 mm 0.12 in3.0 mm 0.05 in1.3 mm
08:00 AM 49.6°F9.8°C 40.2°F4.6°C 70% Calm Calm -- 29.85 in1010.8 mb 0.02 in0.5 mm 0.00 in0.0 mm 0.05 in1.3 mm
08:05 AM 49.6°F9.8°C 40.2°F4.6°C 70% Calm Calm -- 29.86 in1011.2 mb 0.02 in0.5 mm 0.00 in0.0 mm 0.05 in1.3 mm
08:10 AM 49.7°F9.8°C 39.9°F4.4°C 69% Calm Calm -- 29.87 in1011.5 mb 0.02 in0.5 mm 0.00 in0.0 mm 0.05 in1.3 mm
08:15 AM 49.6°F9.8°C 39.8°F4.3°C 69% Calm Calm -- 29.87 in1011.5 mb 0.02 in0.5 mm 0.00 in0.0 mm 0.05 in1.3 mm
08:20 AM 49.6°F9.8°C 39.8°F4.3°C 69% Calm Calm -- 29.87 in1011.5 mb 0.01 in0.3 mm 0.00 in0.0 mm 0.05 in1.3 mm
08:25 AM 49.6°F9.8°C 39.8°F4.3°C 69% Calm Calm -- 29.87 in1011.5 mb 0.01 in0.3 mm 0.00 in0.0 mm 0.05 in1.3 mm
08:30 AM 49.6°F9.8°C 39.8°F4.3°C 69% Calm Calm -- 29.87 in1011.5 mb 0.02 in0.5 mm 0.12 in3.0 mm 0.06 in1.5 mm
08:35 AM 49.5°F9.7°C 39.7°F4.3°C 69% Calm Calm -- 29.87 in1011.5 mb 0.02 in0.5 mm 0.00 in0.0 mm 0.06 in1.5 mm
08:40 AM 49.5°F9.7°C 39.7°F4.3°C 69% Calm Calm -- 29.87 in1011.5 mb 0.02 in0.5 mm 0.00 in0.0 mm 0.06 in1.5 mm
08:45 AM 49.6°F9.8°C 39.8°F4.3°C 69% Calm Calm -- 29.87 in1011.5 mb 0.02 in0.5 mm 0.00 in0.0 mm 0.06 in1.5 mm
08:50 AM 49.6°F9.8°C 39.8°F4.3°C 69% Calm Calm -- 29.87 in1011.5 mb 0.02 in0.5 mm 0.00 in0.0 mm 0.06 in1.5 mm
08:55 AM 49.6°F9.8°C 39.8°F4.3°C 69% Calm Calm -- 29.87 in1011.5 mb 0.01 in0.3 mm 0.00 in0.0 mm 0.06 in1.5 mm
09:00 AM 49.7°F9.8°C 39.9°F4.4°C 69% Calm Calm -- 29.88 in1011.9 mb 0.01 in0.3 mm 0.00 in0.0 mm 0.06 in1.5 mm
09:05 AM 49.6°F9.8°C 39.8°F4.3°C 69% Calm Calm -- 29.88 in1011.9 mb 0.01 in0.3 mm 0.00 in0.0 mm 0.06 in1.5 mm
09:10 AM 49.6°F9.8°C 39.8°F4.3°C 69% Calm Calm -- 29.88 in1011.9 mb 0.01 in0.3 mm 0.00 in0.0 mm 0.06 in1.5 mm
09:15 AM 49.6°F9.8°C 39.8°F4.3°C 69% Calm Calm -- 29.88 in1011.9 mb 0.01 in0.3 mm 0.00 in0.0 mm 0.06 in1.5 mm
09:20 AM 49.5°F9.7°C 39.7°F4.3°C 69% Calm Calm -- 29.88 in1011.9 mb 0.01 in0.3 mm 0.00 in0.0 mm 0.06 in1.5 mm
09:25 AM 49.5°F9.7°C 39.7°F4.3°C 69% Calm Calm -- 29.88 in1011.9 mb 0.01 in0.3 mm 0.00 in0.0 mm 0.06 in1.5 mm
09:30 AM 49.5°F9.7°C 39.7°F4.3°C 69% Calm Calm -- 29.88 in1011.9 mb 0.00 in0.0 mm 0.00 in0.0 mm 0.06 in1.5 mm
09:35 AM 49.5°F9.7°C 39.7°F4.3°C 69% Calm Calm -- 29.88 in1011.9 mb 0.00 in0.0 mm 0.00 in0.0 mm 0.06 in1.5 mm
09:40 AM 49.6°F9.8°C 39.8°F4.3°C 69% Calm Calm -- 29.88 in1011.9 mb 0.00 in0.0 mm 0.00 in0.0 mm 0.06 in1.5 mm
09:45 AM 49.7°F9.8°C 39.9°F4.4°C 69% Calm Calm -- 29.88 in1011.9 mb 0.00 in0.0 mm 0.00 in0.0 mm 0.06 in1.5 mm
09:50 AM 49.7°F9.8°C 39.9°F4.4°C 69% Calm Calm -- 29.89 in1012.2 mb 0.01 in0.3 mm 0.12 in3.0 mm 0.06 in1.5 mm
09:55 AM 49.7°F9.8°C 39.9°F4.4°C 69% Calm Calm -- 29.89 in1012.2 mb 0.02 in0.5 mm 0.12 in3.0 mm 0.07 in1.8 mm
10:00 AM 49.7°F9.8°C 39.9°F4.4°C 69% Calm Calm -- 29.89 in1012.2 mb 0.02 in0.5 mm 0.00 in0.0 mm 0.08 in2.0 mm
10:05 AM 49.8°F9.9°C 40.0°F4.4°C 69% Calm Calm -- 29.89 in1012.2 mb 0.02 in0.5 mm 0.00 in0.0 mm 0.08 in2.0 mm
10:10 AM 49.7°F9.8°C 39.9°F4.4°C 69% Calm Calm -- 29.89 in1012.2 mb 0.03 in0.8 mm 0.12 in3.0 mm 0.09 in2.3 mm
10:15 AM 49.6°F9.8°C 39.8°F4.3°C 69% Calm Calm -- 29.89 in1012.2 mb 0.03 in0.8 mm 0.00 in0.0 mm 0.09 in2.3 mm
10:20 AM 49.6°F9.8°C 39.8°F4.3°C 69% Calm Calm -- 29.89 in1012.2 mb 0.03 in0.8 mm 0.00 in0.0 mm 0.09 in2.3 mm
10:25 AM 49.6°F9.8°C 39.8°F4.3°C 69% Calm Calm -- 29.89 in1012.2 mb 0.04 in1.0 mm 0.12 in3.0 mm 0.09 in2.3 mm
10:30 AM 49.7°F9.8°C 39.9°F4.4°C 69% Calm Calm -- 29.89 in1012.2 mb 0.04 in1.0 mm 0.00 in0.0 mm 0.09 in2.3 mm
10:35 AM 49.7°F9.8°C 39.9°F4.4°C 69% Calm Calm -- 29.88 in1011.9 mb 0.05 in1.3 mm 0.12 in3.0 mm 0.10 in2.5 mm
10:40 AM 49.6°F9.8°C 39.8°F4.3°C 69% Calm Calm -- 29.89 in1012.2 mb 0.05 in1.3 mm 0.00 in0.0 mm 0.10 in2.5 mm
10:45 AM 49.6°F9.8°C 39.8°F4.3°C 69% Calm Calm -- 29.89 in1012.2 mb 0.06 in1.5 mm 0.12 in3.0 mm 0.11 in2.8 mm
10:50 AM 49.7°F9.8°C 39.9°F4.4°C 69% Calm Calm -- 29.89 in1012.2 mb 0.05 in1.3 mm 0.00 in0.0 mm 0.11 in2.8 mm
10:55 AM 49.8°F9.9°C 40.0°F4.4°C 69% Calm Calm -- 29.89 in1012.2 mb 0.04 in1.0 mm 0.00 in0.0 mm 0.11 in2.8 mm
11:00 AM 49.8°F9.9°C 40.0°F4.4°C 69% Calm Calm -- 29.90 in1012.5 mb 0.03 in0.8 mm 0.00 in0.0 mm 0.11 in2.8 mm
11:05 AM 49.9°F9.9°C 40.1°F4.5°C 69% Calm Calm -- 29.90 in1012.5 mb 0.03 in0.8 mm 0.00 in0.0 mm 0.11 in2.8 mm
11:10 AM 49.9°F9.9°C 40.1°F4.5°C 69% Calm Calm -- 29.89 in1012.2 mb 0.03 in0.8 mm 0.00 in0.0 mm 0.12 in3.0 mm
11:15 AM 50.0°F10.0°C 40.2°F4.6°C 69% Calm Calm -- 29.89 in1012.2 mb 0.03 in0.8 mm 0.00 in0.0 mm 0.12 in3.0 mm
11:20 AM 50.0°F10.0°C 40.2°F4.6°C 69% Calm Calm -- 29.89 in1012.2 mb 0.03 in0.8 mm 0.00 in0.0 mm 0.12 in3.0 mm
11:25 AM 49.9°F9.9°C 40.1°F4.5°C 69% Calm Calm -- 29.89 in1012.2 mb 0.03 in0.8 mm 0.00 in0.0 mm 0.13 in3.3 mm
11:30 AM 50.0°F10.0°C 40.2°F4.6°C 69% Calm Calm -- 29.89 in1012.2 mb 0.04 in1.0 mm 0.12 in3.0 mm 0.13 in3.3 mm
11:35 AM 50.1°F10.1°C 40.3°F4.6°C 69% Calm Calm -- 29.90 in1012.5 mb 0.03 in0.8 mm 0.00 in0.0 mm 0.13 in3.3 mm
11:40 AM 50.3°F10.2°C 40.5°F4.7°C 69% Calm Calm -- 29.89 in1012.2 mb 0.03 in0.8 mm 0.00 in0.0 mm 0.13 in3.3 mm
11:45 AM 50.5°F10.3°C 40.7°F4.8°C 69% Calm Calm -- 29.89 in1012.2 mb 0.02 in0.5 mm 0.00 in0.0 mm 0.13 in3.3 mm
11:50 AM 51.1°F10.6°C 40.9°F4.9°C 68% Calm Calm -- 29.89 in1012.2 mb 0.03 in0.8 mm 0.12 in3.0 mm 0.14 in3.6 mm
11:55 AM 51.3°F10.7°C 41.1°F5.1°C 68% Calm Calm -- 29.88 in1011.9 mb 0.03 in0.8 mm 0.00 in0.0 mm 0.14 in3.6 mm
12:00 PM 51.4°F10.8°C 41.1°F5.1°C 68% Calm Calm -- 29.88 in1011.9 mb 0.03 in0.8 mm 0.00 in0.0 mm 0.14 in3.6 mm
12:05 PM 51.5°F10.8°C 41.2°F5.1°C 68% Calm Calm -- 29.89 in1012.2 mb 0.03 in0.8 mm 0.00 in0.0 mm 0.14 in3.6 mm
12:10 PM 51.4°F10.8°C 41.1°F5.1°C 68% Calm Calm -- 29.89 in1012.2 mb 0.02 in0.5 mm 0.00 in0.0 mm 0.14 in3.6 mm
12:15 PM 51.3°F10.7°C 41.4°F5.2°C 69% Calm Calm -- 29.89 in1012.2 mb 0.02 in0.5 mm 0.00 in0.0 mm 0.14 in3.6 mm
12:20 PM 51.3°F10.7°C 41.4°F5.2°C 69% Calm Calm -- 29.89 in1012.2 mb 0.02 in0.5 mm 0.00 in0.0 mm 0.14 in3.6 mm
12:25 PM 51.0°F10.6°C 41.1°F5.1°C 69% Calm Calm -- 29.89 in1012.2 mb 0.02 in0.5 mm 0.00 in0.0 mm 0.14 in3.6 mm
12:30 PM 50.9°F10.5°C 41.4°F5.2°C 70% Calm Calm -- 29.89 in1012.2 mb 0.01 in0.3 mm 0.00 in0.0 mm 0.14 in3.6 mm
12:35 PM 50.9°F10.5°C 41.4°F5.2°C 70% Calm Calm -- 29.89 in1012.2 mb 0.01 in0.3 mm 0.00 in0.0 mm 0.14 in3.6 mm
12:40 PM 51.2°F10.7°C 41.7°F5.4°C 70% Calm Calm -- 29.89 in1012.2 mb 0.01 in0.3 mm 0.00 in0.0 mm 0.14 in3.6 mm
12:45 PM 51.3°F10.7°C 42.2°F5.7°C 71% Calm Calm -- 29.89 in1012.2 mb 0.01 in0.3 mm 0.00 in0.0 mm 0.14 in3.6 mm
12:50 PM 51.3°F10.7°C 42.5°F5.8°C 72% Calm Calm -- 29.89 in1012.2 mb 0.00 in0.0 mm 0.00 in0.0 mm 0.14 in3.6 mm
12:55 PM 51.5°F10.8°C 42.7°F5.9°C 72% Calm Calm -- 29.89 in1012.2 mb 0.00 in0.0 mm 0.00 in0.0 mm 0.14 in3.6 mm
01:00 PM 51.4°F10.8°C 43.3°F6.3°C 74% Calm Calm -- 29.88 in1011.9 mb 0.00 in0.0 mm 0.00 in0.0 mm 0.14 in3.6 mm
01:05 PM 51.6°F10.9°C 43.5°F6.4°C 74% Calm Calm -- 29.88 in1011.9 mb 0.00 in0.0 mm 0.00 in0.0 mm 0.14 in3.6 mm
01:10 PM 51.7°F10.9°C 44.0°F6.7°C 75% Calm Calm -- 29.88 in1011.9 mb 0.00 in0.0 mm 0.00 in0.0 mm 0.14 in3.6 mm
01:15 PM 51.8°F11.0°C 44.4°F6.9°C 76% Calm Calm -- 29.88 in1011.9 mb 0.00 in0.0 mm 0.00 in0.0 mm 0.14 in3.6 mm
01:20 PM 52.1°F11.2°C 44.4°F6.9°C 75% Calm Calm -- 29.88 in1011.9 mb 0.00 in0.0 mm 0.00 in0.0 mm 0.14 in3.6 mm
01:25 PM 52.6°F11.4°C 44.9°F7.2°C 75% Calm Calm -- 29.88 in1011.9 mb 0.00 in0.0 mm 0.00 in0.0 mm 0.14 in3.6 mm
01:30 PM 52.7°F11.5°C 45.3°F7.4°C 76% Calm Calm -- 29.88 in1011.9 mb 0.00 in0.0 mm 0.00 in0.0 mm 0.14 in3.6 mm
01:35 PM 52.8°F11.6°C 45.4°F7.4°C 76% Calm Calm -- 29.88 in1011.9 mb 0.00 in0.0 mm 0.00 in0.0 mm 0.14 in3.6 mm
01:40 PM 52.9°F11.6°C 45.5°F7.5°C 76% Calm Calm -- 29.88 in1011.9 mb 0.00 in0.0 mm 0.00 in0.0 mm 0.14 in3.6 mm
01:45 PM 52.9°F11.6°C 45.5°F7.5°C 76% Calm Calm -- 29.88 in1011.9 mb 0.00 in0.0 mm 0.00 in0.0 mm 0.14 in3.6 mm
01:50 PM 52.9°F11.6°C 45.5°F7.5°C 76% Calm Calm -- 29.87 in1011.5 mb 0.00 in0.0 mm 0.00 in0.0 mm 0.14 in3.6 mm
01:55 PM 53.2°F11.8°C 45.8°F7.7°C 76% Calm Calm -- 29.88 in1011.9 mb 0.00 in0.0 mm 0.00 in0.0 mm 0.14 in3.6 mm
02:00 PM 53.4°F11.9°C 46.0°F7.8°C 76% Calm Calm -- 29.88 in1011.9 mb 0.00 in0.0 mm 0.00 in0.0 mm 0.14 in3.6 mm
02:05 PM 53.5°F11.9°C 46.1°F7.8°C 76% Calm Calm -- 29.88 in1011.9 mb 0.00 in0.0 mm 0.00 in0.0 mm 0.14 in3.6 mm
02:10 PM 53.4°F11.9°C 46.0°F7.8°C 76% Calm Calm -- 29.88 in1011.9 mb 0.00 in0.0 mm 0.00 in0.0 mm 0.14 in3.6 mm
02:15 PM 53.5°F11.9°C 45.7°F7.6°C 75% Calm Calm -- 29.88 in1011.9 mb 0.00 in0.0 mm 0.00 in0.0 mm 0.14 in3.6 mm
02:20 PM 53.4°F11.9°C 45.6°F7.6°C 75% Calm Calm -- 29.88 in1011.9 mb 0.00 in0.0 mm 0.00 in0.0 mm 0.14 in3.6 mm
02:25 PM 53.3°F11.8°C 45.5°F7.5°C 75% Calm Calm -- 29.88 in1011.9 mb 0.00 in0.0 mm 0.00 in0.0 mm 0.14 in3.6 mm
02:30 PM 53.5°F11.9°C 45.7°F7.6°C 75% Calm Calm -- 29.87 in1011.5 mb 0.00 in0.0 mm 0.00 in0.0 mm 0.14 in3.6 mm
02:35 PM 53.7°F12.1°C 45.6°F7.6°C 74% Calm Calm -- 29.87 in1011.5 mb 0.00 in0.0 mm 0.00 in0.0 mm 0.14 in3.6 mm
02:40 PM 54.1°F12.3°C 45.9°F7.7°C 74% Calm Calm -- 29.87 in1011.5 mb 0.00 in0.0 mm 0.00 in0.0 mm 0.14 in3.6 mm
02:45 PM 55.0°F12.8°C 46.8°F8.2°C 74% Calm Calm -- 29.87 in1011.5 mb 0.00 in0.0 mm 0.00 in0.0 mm 0.14 in3.6 mm
02:50 PM 55.6°F13.1°C 47.4°F8.6°C 74% Calm Calm -- 29.87 in1011.5 mb 0.00 in0.0 mm 0.00 in0.0 mm 0.14 in3.6 mm
02:55 PM 55.5°F13.1°C 47.3°F8.5°C 74% Calm Calm -- 29.87 in1011.5 mb 0.00 in0.0 mm 0.00 in0.0 mm 0.14 in3.6 mm
03:00 PM 55.4°F13.0°C 48.3°F9.1°C 77% Calm Calm -- 29.87 in1011.5 mb 0.00 in0.0 mm 0.00 in0.0 mm 0.14 in3.6 mm
03:05 PM 55.1°F12.8°C 46.9°F8.3°C 74% Calm Calm -- 29.87 in1011.5 mb 0.00 in0.0 mm 0.00 in0.0 mm 0.14 in3.6 mm
03:10 PM 55.0°F12.8°C 46.8°F8.2°C 74% Calm Calm -- 29.87 in1011.5 mb 0.00 in0.0 mm 0.00 in0.0 mm 0.14 in3.6 mm
03:15 PM 54.8°F12.7°C 46.6°F8.1°C 74% Calm Calm -- 29.87 in1011.5 mb 0.00 in0.0 mm 0.00 in0.0 mm 0.14 in3.6 mm
03:20 PM 54.8°F12.7°C 46.6°F8.1°C 74% Calm Calm -- 29.87 in1011.5 mb 0.00 in0.0 mm 0.00 in0.0 mm 0.14 in3.6 mm
03:25 PM 54.6°F12.6°C 46.1°F7.8°C 73% Calm Calm -- 29.87 in1011.5 mb 0.00 in0.0 mm 0.00 in0.0 mm 0.14 in3.6 mm
03:30 PM 54.7°F12.6°C 46.2°F7.9°C 73% Calm Calm -- 29.87 in1011.5 mb 0.00 in0.0 mm 0.00 in0.0 mm 0.14 in3.6 mm
03:35 PM 54.5°F12.5°C 46.0°F7.8°C 73% Calm Calm -- 29.87 in1011.5 mb 0.00 in0.0 mm 0.00 in0.0 mm 0.14 in3.6 mm
03:40 PM 54.5°F12.5°C 46.0°F7.8°C 73% Calm Calm -- 29.87 in1011.5 mb 0.00 in0.0 mm 0.00 in0.0 mm 0.14 in3.6 mm
03:45 PM 54.3°F12.4°C 45.8°F7.7°C 73% Calm Calm -- 29.87 in1011.5 mb 0.00 in0.0 mm 0.00 in0.0 mm 0.14 in3.6 mm
03:50 PM 54.1°F12.3°C 45.9°F7.7°C 74% Calm Calm -- 29.87 in1011.5 mb 0.00 in0.0 mm 0.00 in0.0 mm 0.14 in3.6 mm
03:55 PM 53.9°F12.2°C 45.4°F7.4°C 73% Calm Calm -- 29.87 in1011.5 mb 0.00 in0.0 mm 0.00 in0.0 mm 0.14 in3.6 mm
04:00 PM 53.8°F12.1°C 45.7°F7.6°C 74% Calm Calm -- 29.87 in1011.5 mb 0.00 in0.0 mm 0.00 in0.0 mm 0.14 in3.6 mm
04:05 PM 53.7°F12.1°C 45.6°F7.6°C 74% Calm Calm -- 29.87 in1011.5 mb 0.00 in0.0 mm 0.00 in0.0 mm 0.14 in3.6 mm
04:10 PM 53.7°F12.1°C 45.6°F7.6°C 74% Calm Calm -- 29.87 in1011.5 mb 0.00 in0.0 mm 0.00 in0.0 mm 0.14 in3.6 mm
04:15 PM 53.6°F12.0°C 45.8°F7.7°C 75% Calm Calm -- 29.87 in1011.5 mb 0.00 in0.0 mm 0.00 in0.0 mm 0.14 in3.6 mm
04:20 PM 53.5°F11.9°C 45.7°F7.6°C 75% Calm Calm -- 29.87 in1011.5 mb 0.00 in0.0 mm 0.00 in0.0 mm 0.14 in3.6 mm
04:25 PM 53.4°F11.9°C 45.6°F7.6°C 75% Calm Calm -- 29.88 in1011.9 mb 0.00 in0.0 mm 0.00 in0.0 mm 0.14 in3.6 mm
04:30 PM 53.2°F11.8°C 45.4°F7.4°C 75% Calm Calm -- 29.88 in1011.9 mb 0.00 in0.0 mm 0.00 in0.0 mm 0.14 in3.6 mm
04:35 PM 53.1°F11.7°C 45.7°F7.6°C 76% Calm Calm -- 29.88 in1011.9 mb 0.00 in0.0 mm 0.00 in0.0 mm 0.14 in3.6 mm
04:40 PM 53.0°F11.7°C 45.6°F7.6°C 76% Calm Calm -- 29.88 in1011.9 mb 0.00 in0.0 mm 0.00 in0.0 mm 0.14 in3.6 mm
04:45 PM 52.9°F11.6°C 45.5°F7.5°C 76% Calm Calm -- 29.88 in1011.9 mb 0.00 in0.0 mm 0.00 in0.0 mm 0.14 in3.6 mm
04:50 PM 52.8°F11.6°C 45.4°F7.4°C 76% Calm Calm -- 29.88 in1011.9 mb 0.00 in0.0 mm 0.00 in0.0 mm 0.14 in3.6 mm
04:55 PM 52.7°F11.5°C 45.3°F7.4°C 76% Calm Calm -- 29.88 in1011.9 mb 0.00 in0.0 mm 0.00 in0.0 mm 0.14 in3.6 mm
05:00 PM 52.6°F11.4°C 45.2°F7.3°C 76% Calm Calm -- 29.88 in1011.9 mb 0.00 in0.0 mm 0.00 in0.0 mm 0.14 in3.6 mm
05:05 PM 52.5°F11.4°C 45.1°F7.3°C 76% Calm Calm -- 29.89 in1012.2 mb 0.00 in0.0 mm 0.00 in0.0 mm 0.14 in3.6 mm
05:10 PM 52.6°F11.4°C 45.2°F7.3°C 76% Calm Calm -- 29.89 in1012.2 mb 0.00 in0.0 mm 0.00 in0.0 mm 0.14 in3.6 mm
05:15 PM 52.8°F11.6°C 45.4°F7.4°C 76% Calm Calm -- 29.89 in1012.2 mb 0.00 in0.0 mm 0.00 in0.0 mm 0.14 in3.6 mm
05:20 PM 53.1°F11.7°C 45.7°F7.6°C 76% Calm Calm -- 29.88 in1011.9 mb 0.00 in0.0 mm 0.00 in0.0 mm 0.14 in3.6 mm
05:25 PM 53.2°F11.8°C 45.8°F7.7°C 76% Calm Calm -- 29.88 in1011.9 mb 0.00 in0.0 mm 0.00 in0.0 mm 0.14 in3.6 mm
05:30 PM 53.3°F11.8°C 45.9°F7.7°C 76% Calm Calm -- 29.88 in1011.9 mb 0.00 in0.0 mm 0.00 in0.0 mm 0.14 in3.6 mm
05:35 PM 53.3°F11.8°C 45.9°F7.7°C 76% Calm Calm -- 29.88 in1011.9 mb 0.00 in0.0 mm 0.00 in0.0 mm 0.14 in3.6 mm
05:40 PM 53.2°F11.8°C 45.8°F7.7°C 76% Calm Calm -- 29.89 in1012.2 mb 0.00 in0.0 mm 0.00 in0.0 mm 0.14 in3.6 mm
05:45 PM 53.1°F11.7°C 45.7°F7.6°C 76% Calm Calm -- 29.89 in1012.2 mb 0.00 in0.0 mm 0.00 in0.0 mm 0.14 in3.6 mm
05:50 PM 52.8°F11.6°C 45.4°F7.4°C 76% Calm Calm -- 29.88 in1011.9 mb 0.00 in0.0 mm 0.00 in0.0 mm 0.14 in3.6 mm
05:55 PM 52.5°F11.4°C 45.1°F7.3°C 76% Calm Calm -- 29.88 in1011.9 mb 0.00 in0.0 mm 0.00 in0.0 mm 0.14 in3.6 mm
06:00 PM 52.3°F11.3°C 44.9°F7.2°C 76% Calm Calm -- 29.88 in1011.9 mb 0.00 in0.0 mm 0.00 in0.0 mm 0.14 in3.6 mm
06:05 PM 52.2°F11.2°C 44.8°F7.1°C 76% Calm Calm -- 29.89 in1012.2 mb 0.00 in0.0 mm 0.00 in0.0 mm 0.14 in3.6 mm
06:10 PM 51.9°F11.1°C 44.5°F6.9°C 76% Calm Calm -- 29.89 in1012.2 mb 0.00 in0.0 mm 0.00 in0.0 mm 0.14 in3.6 mm
06:15 PM 51.7°F10.9°C 44.3°F6.8°C 76% Calm Calm -- 29.89 in1012.2 mb 0.00 in0.0 mm 0.00 in0.0 mm 0.14 in3.6 mm
06:20 PM 51.5°F10.8°C 44.1°F6.7°C 76% Calm Calm -- 29.89 in1012.2 mb 0.00 in0.0 mm 0.00 in0.0 mm 0.14 in3.6 mm
06:25 PM 51.4°F10.8°C 44.0°F6.7°C 76% Calm Calm -- 29.90 in1012.5 mb 0.00 in0.0 mm 0.00 in0.0 mm 0.14 in3.6 mm
06:30 PM 51.3°F10.7°C 43.9°F6.6°C 76% Calm Calm -- 29.89 in1012.2 mb 0.00 in0.0 mm 0.00 in0.0 mm 0.14 in3.6 mm
06:35 PM 51.2°F10.7°C 43.8°F6.6°C 76% Calm Calm -- 29.89 in1012.2 mb 0.00 in0.0 mm 0.00 in0.0 mm 0.14 in3.6 mm
06:40 PM 51.0°F10.6°C 43.7°F6.5°C 76% Calm Calm -- 29.90 in1012.5 mb 0.00 in0.0 mm 0.00 in0.0 mm 0.14 in3.6 mm
06:45 PM 50.8°F10.4°C 43.5°F6.4°C 76% Calm Calm -- 29.90 in1012.5 mb 0.00 in0.0 mm 0.00 in0.0 mm 0.14 in3.6 mm
06:50 PM 50.6°F10.3°C 43.3°F6.3°C 76% Calm Calm -- 29.90 in1012.5 mb 0.00 in0.0 mm 0.00 in0.0 mm 0.14 in3.6 mm
06:55 PM 50.5°F10.3°C 43.2°F6.2°C 76% Calm Calm -- 29.90 in1012.5 mb 0.00 in0.0 mm 0.00 in0.0 mm 0.14 in3.6 mm
07:00 PM 50.3°F10.2°C 43.0°F6.1°C 76% Calm Calm -- 29.91 in1012.9 mb 0.00 in0.0 mm 0.00 in0.0 mm 0.14 in3.6 mm
07:05 PM 50.2°F10.1°C 42.9°F6.1°C 76% Calm Calm -- 29.90 in1012.5 mb 0.00 in0.0 mm 0.00 in0.0 mm 0.14 in3.6 mm
07:10 PM 50.1°F10.1°C 42.4°F5.8°C 75% Calm Calm -- 29.91 in1012.9 mb 0.00 in0.0 mm 0.00 in0.0 mm 0.14 in3.6 mm
07:15 PM 50.0°F10.0°C 42.3°F5.7°C 75% Calm Calm -- 29.91 in1012.9 mb 0.00 in0.0 mm 0.00 in0.0 mm 0.14 in3.6 mm
07:20 PM 49.9°F9.9°C 42.2°F5.7°C 75% Calm Calm -- 29.91 in1012.9 mb 0.00 in0.0 mm 0.00 in0.0 mm 0.14 in3.6 mm
07:25 PM 49.9°F9.9°C 42.2°F5.7°C 75% Calm Calm -- 29.91 in1012.9 mb 0.00 in0.0 mm 0.00 in0.0 mm 0.14 in3.6 mm
07:30 PM 49.9°F9.9°C 42.2°F5.7°C 75% Calm Calm -- 29.91 in1012.9 mb 0.00 in0.0 mm 0.00 in0.0 mm 0.14 in3.6 mm
07:35 PM 49.7°F9.8°C 42.1°F5.6°C 75% Calm Calm -- 29.91 in1012.9 mb 0.00 in0.0 mm 0.00 in0.0 mm 0.14 in3.6 mm
07:40 PM 49.6°F9.8°C 41.6°F5.3°C 74% Calm Calm -- 29.91 in1012.9 mb 0.00 in0.0 mm 0.00 in0.0 mm 0.14 in3.6 mm
07:45 PM 49.5°F9.7°C 41.5°F5.3°C 74% Calm Calm -- 29.91 in1012.9 mb 0.00 in0.0 mm 0.00 in0.0 mm 0.14 in3.6 mm
07:50 PM 49.4°F9.7°C 41.4°F5.2°C 74% Calm Calm -- 29.92 in1013.2 mb 0.00 in0.0 mm 0.00 in0.0 mm 0.14 in3.6 mm
07:55 PM 49.3°F9.6°C 41.3°F5.2°C 74% Calm Calm -- 29.92 in1013.2 mb 0.00 in0.0 mm 0.00 in0.0 mm 0.14 in3.6 mm
08:00 PM 49.2°F9.6°C 41.2°F5.1°C 74% Calm Calm -- 29.92 in1013.2 mb 0.00 in0.0 mm 0.00 in0.0 mm 0.14 in3.6 mm
08:05 PM 49.0°F9.4°C 41.0°F5.0°C 74% Calm Calm -- 29.92 in1013.2 mb 0.00 in0.0 mm 0.00 in0.0 mm 0.14 in3.6 mm
08:10 PM 48.8°F9.3°C 40.8°F4.9°C 74% Calm Calm -- 29.92 in1013.2 mb 0.00 in0.0 mm 0.00 in0.0 mm 0.14 in3.6 mm
08:15 PM 48.7°F9.3°C 40.7°F4.8°C 74% Calm Calm -- 29.91 in1012.9 mb 0.00 in0.0 mm 0.00 in0.0 mm 0.14 in3.6 mm
08:20 PM 48.5°F9.2°C 40.5°F4.7°C 74% Calm Calm -- 29.91 in1012.9 mb 0.00 in0.0 mm 0.00 in0.0 mm 0.14 in3.6 mm
08:25 PM 48.3°F9.1°C 40.4°F4.7°C 74% Calm Calm -- 29.91 in1012.9 mb 0.00 in0.0 mm 0.00 in0.0 mm 0.14 in3.6 mm
08:30 PM 48.2°F9.0°C 40.3°F4.6°C 74% Calm Calm -- 29.91 in1012.9 mb 0.00 in0.0 mm 0.00 in0.0 mm 0.14 in3.6 mm
08:35 PM 48.0°F8.9°C 40.1°F4.5°C 74% Calm Calm -- 29.91 in1012.9 mb 0.00 in0.0 mm 0.00 in0.0 mm 0.14 in3.6 mm
08:40 PM 47.8°F8.8°C 39.9°F4.4°C 74% Calm Calm -- 29.92 in1013.2 mb 0.00 in0.0 mm 0.00 in0.0 mm 0.14 in3.6 mm
08:45 PM 47.7°F8.7°C 39.8°F4.3°C 74% Calm Calm -- 29.92 in1013.2 mb 0.00 in0.0 mm 0.00 in0.0 mm 0.14 in3.6 mm
08:50 PM 47.6°F8.7°C 39.7°F4.3°C 74% Calm Calm -- 29.92 in1013.2 mb 0.00 in0.0 mm 0.00 in0.0 mm 0.14 in3.6 mm
08:55 PM 47.5°F8.6°C 39.2°F4.0°C 73% Calm Calm -- 29.92 in1013.2 mb 0.00 in0.0 mm 0.00 in0.0 mm 0.14 in3.6 mm
09:00 PM 47.4°F8.6°C 39.1°F3.9°C 73% Calm Calm -- 29.92 in1013.2 mb 0.00 in0.0 mm 0.00 in0.0 mm 0.14 in3.6 mm
09:05 PM 47.3°F8.5°C 39.0°F3.9°C 73% Calm Calm -- 29.92 in1013.2 mb 0.00 in0.0 mm 0.00 in0.0 mm 0.14 in3.6 mm
09:10 PM 47.2°F8.4°C 38.9°F3.8°C 73% Calm Calm -- 29.92 in1013.2 mb 0.00 in0.0 mm 0.00 in0.0 mm 0.14 in3.6 mm
09:15 PM 47.0°F8.3°C 38.8°F3.8°C 73% Calm Calm -- 29.92 in1013.2 mb 0.00 in0.0 mm 0.00 in0.0 mm 0.14 in3.6 mm
09:20 PM 46.9°F8.3°C 38.7°F3.7°C 73% Calm Calm -- 29.92 in1013.2 mb 0.00 in0.0 mm 0.00 in0.0 mm 0.14 in3.6 mm
09:25 PM 46.8°F8.2°C 38.6°F3.7°C 73% Calm Calm -- 29.92 in1013.2 mb 0.00 in0.0 mm 0.00 in0.0 mm 0.14 in3.6 mm
09:30 PM 46.7°F8.2°C 38.5°F3.6°C 73% Calm Calm -- 29.92 in1013.2 mb 0.00 in0.0 mm 0.00 in0.0 mm 0.14 in3.6 mm
09:35 PM 46.6°F8.1°C 38.4°F3.6°C 73% Calm Calm -- 29.92 in1013.2 mb 0.00 in0.0 mm 0.00 in0.0 mm 0.14 in3.6 mm
09:40 PM 46.4°F8.0°C 39.2°F4.0°C 76% Calm Calm -- 29.92 in1013.2 mb 0.00 in0.0 mm 0.00 in0.0 mm 0.14 in3.6 mm
09:45 PM 46.3°F7.9°C 38.1°F3.4°C 73% Calm Calm -- 29.92 in1013.2 mb 0.00 in0.0 mm 0.00 in0.0 mm 0.14 in3.6 mm
09:50 PM 46.3°F7.9°C 38.1°F3.4°C 73% Calm Calm -- 29.92 in1013.2 mb 0.00 in0.0 mm 0.00 in0.0 mm 0.14 in3.6 mm
09:55 PM 46.3°F7.9°C 38.1°F3.4°C 73% Calm Calm -- 29.93 in1013.5 mb 0.00 in0.0 mm 0.00 in0.0 mm 0.14 in3.6 mm
10:00 PM 46.2°F7.9°C 38.0°F3.3°C 73% Calm Calm -- 29.92 in1013.2 mb 0.00 in0.0 mm 0.00 in0.0 mm 0.14 in3.6 mm
10:05 PM 46.1°F7.8°C 37.9°F3.3°C 73% Calm Calm -- 29.92 in1013.2 mb 0.00 in0.0 mm 0.00 in0.0 mm 0.14 in3.6 mm
10:10 PM 46.0°F7.8°C 37.8°F3.2°C 73% Calm Calm -- 29.92 in1013.2 mb 0.00 in0.0 mm 0.00 in0.0 mm 0.14 in3.6 mm
10:15 PM 45.9°F7.7°C 37.3°F2.9°C 72% Calm Calm -- 29.93 in1013.5 mb 0.00 in0.0 mm 0.00 in0.0 mm 0.14 in3.6 mm
10:20 PM 45.9°F7.7°C 37.3°F2.9°C 72% Calm Calm -- 29.92 in1013.2 mb 0.00 in0.0 mm 0.00 in0.0 mm 0.14 in3.6 mm
10:25 PM 45.9°F7.7°C 37.3°F2.9°C 72% Calm Calm -- 29.92 in1013.2 mb 0.00 in0.0 mm 0.00 in0.0 mm 0.14 in3.6 mm
10:30 PM 45.8°F7.7°C 37.2°F2.9°C 72% Calm Calm -- 29.92 in1013.2 mb 0.00 in0.0 mm 0.00 in0.0 mm 0.14 in3.6 mm
10:35 PM 45.8°F7.7°C 37.2°F2.9°C 72% Calm Calm -- 29.92 in1013.2 mb 0.00 in0.0 mm 0.00 in0.0 mm 0.14 in3.6 mm
10:40 PM 45.7°F7.6°C 37.1°F2.8°C 72% Calm Calm -- 29.92 in1013.2 mb 0.00 in0.0 mm 0.00 in0.0 mm 0.14 in3.6 mm
10:45 PM 45.6°F7.6°C 37.1°F2.8°C 72% Calm Calm -- 29.92 in1013.2 mb 0.00 in0.0 mm 0.00 in0.0 mm 0.14 in3.6 mm
10:50 PM 45.5°F7.5°C 37.0°F2.8°C 72% Calm Calm -- 29.93 in1013.5 mb 0.00 in0.0 mm 0.00 in0.0 mm 0.14 in3.6 mm
10:55 PM 45.5°F7.5°C 37.0°F2.8°C 72% Calm Calm -- 29.92 in1013.2 mb 0.00 in0.0 mm 0.00 in0.0 mm 0.14 in3.6 mm
11:00 PM 45.5°F7.5°C 37.0°F2.8°C 72% Calm Calm -- 29.92 in1013.2 mb 0.00 in0.0 mm 0.00 in0.0 mm 0.14 in3.6 mm
11:05 PM 45.5°F7.5°C 37.0°F2.8°C 72% Calm Calm -- 29.92 in1013.2 mb 0.00 in0.0 mm 0.00 in0.0 mm 0.15 in3.8 mm
11:10 PM 45.5°F7.5°C 37.0°F2.8°C 72% Calm Calm -- 29.92 in1013.2 mb 0.00 in0.0 mm 0.00 in0.0 mm 0.15 in3.8 mm
11:15 PM 45.4°F7.4°C 36.9°F2.7°C 72% Calm Calm -- 29.92 in1013.2 mb 0.00 in0.0 mm 0.00 in0.0 mm 0.15 in3.8 mm
11:20 PM 45.3°F7.4°C 36.8°F2.7°C 72% Calm Calm -- 29.92 in1013.2 mb 0.00 in0.0 mm 0.00 in0.0 mm 0.15 in3.8 mm
11:25 PM 45.3°F7.4°C 36.8°F2.7°C 72% Calm Calm -- 29.92 in1013.2 mb 0.00 in0.0 mm 0.00 in0.0 mm 0.15 in3.8 mm
11:30 PM 45.2°F7.3°C 36.7°F2.6°C 72% Calm Calm -- 29.92 in1013.2 mb 0.00 in0.0 mm 0.00 in0.0 mm 0.15 in3.8 mm
11:35 PM 45.2°F7.3°C 36.7°F2.6°C 72% Calm Calm -- 29.92 in1013.2 mb 0.00 in0.0 mm 0.00 in0.0 mm 0.15 in3.8 mm
11:40 PM 45.3°F7.4°C 36.8°F2.7°C 72% Calm Calm -- 29.92 in1013.2 mb 0.00 in0.0 mm 0.00 in0.0 mm 0.15 in3.8 mm
11:45 PM 45.4°F7.4°C 36.9°F2.7°C 72% Calm Calm -- 29.92 in1013.2 mb 0.00 in0.0 mm 0.00 in0.0 mm 0.15 in3.8 mm
11:50 PM 45.3°F7.4°C 36.8°F2.7°C 72% Calm Calm -- 29.92 in1013.2 mb 0.00 in0.0 mm 0.00 in0.0 mm 0.15 in3.8 mm
11:55 PM 45.3°F7.4°C 36.8°F2.7°C 72% Calm Calm -- 29.92 in1013.2 mb 0.00 in0.0 mm 0.00 in0.0 mm 0.15 in3.8 mm